Aviation Digital Data Service (ADDS)

Output produced by METARs form (1204 UTC 26 March 2019)
found at http://www.aviationweather.gov/metar/data/
 
Forecast for: LFRH (LORIENT/LANN BIH, FR)
Text: TAF LFRH 261100Z 2612/2712 05010KT CAVOK
Forecast period: 1200 UTC 26 March 2019 to 1200 UTC 27 March 2019
Forecast type: FROM: standard forecast or significant change
Winds: from the NE (50 degrees) at 12 MPH (10 knots; 5.1 m/s)
Visibility: 6 or more miles 10+ km)
Ceiling: unknown
Clouds: missing
Weather: NSW  (no significant weather)
Text: TEMPO 2703/2706 3000 BR
Forecast period: 0300 to 0600 UTC 27 March 2019
Forecast type: TEMPORARY: The following changes expected for less than half the time period
Visibility: 1.86 miles (2.99 km)
Ceiling: unknown
Clouds: missing
Weather: BR  (mist)